Olivet, Michigan
Current Conditions -  °F | °C
As of 4:55 AM on Saturday 25 Oct 2014 (Local Time) from KFPK Reporting Station
Overcast Overcast  
Wind Chill: 52°   Ceiling: 4800
Heat Index: 52°   Visibility: 7mi
Dew Point: 48°   Wind: 5mph
Humidity: 88%   Direction: 210°SSW
Pressure: 29.84"   Gusts: NA
Location:  42.44°N, 84.92°W
Report Text: KFPK 250855Z AUTO 21004KT 7SM SCT040 BKN048 OVC050 11/09 A2984 RMK AO2 T01100090
Loading
Personal Weather Stations






























Interactive Weather Map
Tropical Storm Tracking
New forecast layout! Learn more

10-Day Weather Forecast

Advertisements
Track Severe Weather on mobile